Time;durP1;ratioP1;P1;durP2;ratioP2;P2;SDS_P1;SDS_P2;PMS_P1;PMS_P2;Temp;Humidity;BMP_temperature;BMP_pressure;BME280_temperature;BME280_humidity;BME280_pressure;Samples;Min_cycle;Max_cycle;Signal;HPM_P1;HPM_P2
2023/04/12 00:01:47;;;;;;;6.60;2.53;;;8.00;99.90;;;;;;5037832;28;20033;-62
2023/04/12 00:04:14;;;;;;;9.75;2.92;;;8.10;99.90;;;;;;5040483;28;20150;-61
2023/04/12 00:06:41;;;;;;;6.75;2.60;;;8.00;99.90;;;;;;5035948;28;20044;-62
2023/04/12 00:09:07;;;;;;;10.43;2.75;;;8.00;99.90;;;;;;5034845;28;20044;-62
2023/04/12 00:11:33;;;;;;;9.38;2.50;;;8.00;99.90;;;;;;5051061;28;20033;-62
2023/04/12 00:13:59;;;;;;;8.13;2.85;;;8.00;99.90;;;;;;5062280;28;20419;-61
2023/04/12 00:16:24;;;;;;;7.70;2.58;;;8.10;99.90;;;;;;5039647;28;20041;-62
2023/04/12 00:18:50;;;;;;;9.10;2.58;;;8.10;99.90;;;;;;5051305;28;20072;-62
2023/04/12 00:21:18;;;;;;;6.28;2.72;;;8.10;99.90;;;;;;5054714;28;20439;-62
2023/04/12 00:23:44;;;;;;;10.90;2.95;;;8.10;99.90;;;;;;5053560;28;20430;-62
2023/04/12 00:26:10;;;;;;;6.47;2.40;;;8.10;99.90;;;;;;5060112;28;20042;-62
2023/04/12 00:28:36;;;;;;;8.07;3.65;;;8.10;99.90;;;;;;5065887;28;20029;-62
2023/04/12 00:31:01;;;;;;;7.07;2.60;;;8.10;99.90;;;;;;5064826;28;20626;-62
2023/04/12 00:33:27;;;;;;;8.13;2.47;;;8.10;99.90;;;;;;5056540;28;20079;-62
2023/04/12 00:35:52;;;;;;;9.00;2.80;;;8.20;99.90;;;;;;5053089;28;20060;-62
2023/04/12 00:38:18;;;;;;;9.00;2.65;;;8.20;99.90;;;;;;5053108;28;20037;-62
2023/04/12 00:40:43;;;;;;;9.10;2.88;;;8.20;99.90;;;;;;5063853;28;20044;-62
2023/04/12 00:43:14;;;;;;;8.80;3.25;;;8.20;99.90;;;;;;5068210;28;20029;-62
2023/04/12 00:45:40;;;;;;;8.37;2.47;;;8.20;99.90;;;;;;5070578;28;20478;-62
2023/04/12 00:48:07;;;;;;;8.27;2.75;;;8.30;99.90;;;;;;5034948;28;20068;-62
2023/04/12 00:50:34;;;;;;;8.43;2.88;;;8.40;99.90;;;;;;5052887;28;20127;-62
2023/04/12 00:53:00;;;;;;;13.10;3.08;;;8.40;99.90;;;;;;5035460;28;20037;-62
2023/04/12 00:55:25;;;;;;;11.82;2.97;;;8.40;99.90;;;;;;5048492;28;20044;-62
2023/04/12 00:57:53;;;;;;;9.63;2.83;;;8.40;99.90;;;;;;5062236;28;20048;-62
2023/04/12 01:00:19;;;;;;;8.60;3.05;;;8.50;99.90;;;;;;5051296;28;20044;-62
2023/04/12 01:02:47;;;;;;;10.63;2.90;;;8.50;99.90;;;;;;5034575;28;20052;-62
2023/04/12 01:05:20;;;;;;;10.80;3.08;;;8.50;99.90;;;;;;5057317;28;20040;-62
2023/04/12 01:08:05;;;;;;;9.00;3.03;;;8.50;99.90;;;;;;5062152;28;20040;-62
2023/04/12 01:10:46;;;;;;;7.03;2.83;;;8.50;99.90;;;;;;5059868;28;20043;-62
2023/04/12 01:13:27;;;;;;;10.57;3.28;;;8.50;99.90;;;;;;5053176;28;20029;-62
2023/04/12 01:16:14;;;;;;;9.73;3.13;;;8.50;99.90;;;;;;5051792;28;20047;-62
2023/04/12 01:18:44;;;;;;;6.63;2.95;;;8.60;99.90;;;;;;5050704;28;20098;-62
2023/04/12 01:21:15;;;;;;;10.35;2.80;;;8.60;99.90;;;;;;5034348;28;20045;-62
2023/04/12 01:24:00;;;;;;;8.18;3.03;;;8.60;99.90;;;;;;5053645;28;20086;-62
2023/04/12 01:26:45;;;;;;;12.02;2.90;;;8.60;99.90;;;;;;5037340;28;20036;-62
2023/04/12 01:29:15;;;;;;;10.60;2.97;;;8.70;99.90;;;;;;5050196;28;20033;-62
2023/04/12 01:31:49;;;;;;;8.73;3.28;;;8.70;99.90;;;;;;5031532;28;20069;-62
2023/04/12 01:34:16;;;;;;;8.30;3.00;;;8.70;99.90;;;;;;5038790;28;20037;-62
2023/04/12 01:36:44;;;;;;;7.55;2.70;;;8.70;99.90;;;;;;5032800;28;20126;-62
2023/04/12 01:39:10;;;;;;;9.27;2.78;;;8.70;99.90;;;;;;5047908;28;20037;-62
2023/04/12 01:41:42;;;;;;;7.90;2.92;;;8.80;99.90;;;;;;5070489;23;20036;-66
2023/04/12 01:44:07;;;;;;;7.55;2.78;;;8.80;99.90;;;;;;5068647;28;20036;-65
2023/04/12 01:46:36;;;;;;;11.25;3.20;;;8.80;99.90;;;;;;5078237;28;20058;-66
2023/04/12 01:49:02;;;;;;;14.05;3.03;;;8.80;99.90;;;;;;5061852;28;20108;-65
2023/04/12 01:51:42;;;;;;;7.28;2.67;;;8.80;99.90;;;;;;5070355;28;20119;-66
2023/04/12 01:54:15;;;;;;;8.88;2.78;;;8.80;99.90;;;;;;5049966;28;20483;-65
2023/04/12 01:56:45;;;;;;;8.52;3.00;;;8.80;99.90;;;;;;5049407;28;20584;-66
2023/04/12 01:59:14;;;;;;;9.82;2.40;;;8.90;99.90;;;;;;5050778;28;20045;-67
2023/04/12 02:01:41;;;;;;;10.88;2.65;;;8.90;99.90;;;;;;5047825;28;20033;-66
2023/04/12 02:04:08;;;;;;;6.40;2.28;;;9.00;99.90;;;;;;5053983;28;20033;-66
2023/04/12 02:06:35;;;;;;;9.60;2.47;;;9.00;99.90;;;;;;5057060;28;20055;-66
2023/04/12 02:09:02;;;;;;;6.18;2.85;;;9.00;99.90;;;;;;5059654;28;20395;-66
2023/04/12 02:11:28;;;;;;;5.47;2.53;;;9.00;99.90;;;;;;5050446;28;20115;-66
2023/04/12 02:13:54;;;;;;;9.27;2.55;;;9.00;99.90;;;;;;5034864;28;20051;-66
2023/04/12 02:16:21;;;;;;;7.28;2.17;;;9.00;99.90;;;;;;5058444;28;20044;-65
2023/04/12 02:18:50;;;;;;;6.05;2.22;;;9.00;99.90;;;;;;5069638;28;20498;-66
2023/04/12 02:21:16;;;;;;;7.82;2.05;;;9.00;99.90;;;;;;5054881;28;20040;-66
2023/04/12 02:23:42;;;;;;;6.15;2.80;;;9.00;99.90;;;;;;5051241;28;20052;-66
2023/04/12 02:26:10;;;;;;;7.40;2.15;;;8.90;99.90;;;;;;5060216;28;20032;-66
2023/04/12 02:28:37;;;;;;;5.03;2.28;;;8.90;99.90;;;;;;5061993;28;20079;-66
2023/04/12 02:31:07;;;;;;;7.60;1.80;;;8.90;99.90;;;;;;5050286;28;20494;-65
2023/04/12 02:33:33;;;;;;;7.20;2.13;;;8.90;99.90;;;;;;5066897;28;20032;-66
2023/04/12 02:36:01;;;;;;;7.85;2.50;;;8.90;99.90;;;;;;5052937;28;20037;-66
2023/04/12 02:38:27;;;;;;;4.80;1.58;;;8.90;99.90;;;;;;5063597;28;20029;-66
2023/04/12 02:40:54;;;;;;;5.20;2.03;;;8.90;99.90;;;;;;5057989;28;20044;-66
2023/04/12 02:43:19;;;;;;;6.05;1.85;;;8.90;99.90;;;;;;5069388;28;20039;-66
2023/04/12 02:45:46;;;;;;;4.85;1.75;;;8.90;99.90;;;;;;5078613;28;20433;-66
2023/04/12 02:48:11;;;;;;;6.05;2.13;;;8.90;99.90;;;;;;5085853;28;20497;-66
2023/04/12 02:50:37;;;;;;;5.70;1.73;;;8.90;99.90;;;;;;5087580;28;20025;-66
2023/04/12 02:53:02;;;;;;;5.78;2.00;;;8.80;99.90;;;;;;5070739;28;20504;-66
2023/04/12 02:55:29;;;;;;;7.10;2.05;;;8.80;99.90;;;;;;5076145;28;20495;-66
2023/04/12 02:57:56;;;;;;;6.15;1.90;;;8.70;99.90;;;;;;5079921;28;20119;-66
2023/04/12 03:00:22;;;;;;;6.25;1.95;;;8.70;99.90;;;;;;5068722;28;20490;-66
2023/04/12 03:02:51;;;;;;;4.75;1.60;;;8.70;99.90;;;;;;5078389;28;20047;-66
2023/04/12 03:05:17;;;;;;;5.65;1.88;;;8.70;99.90;;;;;;5078626;28;20035;-66
2023/04/12 03:07:43;;;;;;;4.63;1.80;;;8.70;99.90;;;;;;5091260;28;20101;-66
2023/04/12 03:10:12;;;;;;;5.07;2.10;;;8.70;99.90;;;;;;5070834;28;20060;-66
2023/04/12 03:12:37;;;;;;;6.60;1.75;;;8.70;99.90;;;;;;5066306;28;20036;-66
2023/04/12 03:15:03;;;;;;;4.10;1.75;;;8.70;99.90;;;;;;5067950;28;20429;-66
2023/04/12 03:17:29;;;;;;;6.05;1.23;;;8.70;99.90;;;;;;5063619;28;20040;-66
2023/04/12 03:19:57;;;;;;;4.78;1.70;;;8.70;99.90;;;;;;5084610;28;20028;-67
2023/04/12 03:22:24;;;;;;;5.50;1.50;;;8.70;99.90;;;;;;5079866;28;20037;-66
2023/04/12 03:24:50;;;;;;;4.88;1.88;;;8.70;99.90;;;;;;5074077;28;20040;-66
2023/04/12 03:27:16;;;;;;;5.03;1.80;;;8.70;99.90;;;;;;5089466;28;20395;-66
2023/04/12 03:29:41;;;;;;;3.50;1.90;;;8.70;99.90;;;;;;5083750;28;20032;-66
2023/04/12 03:32:07;;;;;;;6.82;1.90;;;8.70;99.90;;;;;;5078286;28;20036;-66
2023/04/12 03:34:32;;;;;;;9.02;1.70;;;8.70;99.90;;;;;;5069297;28;20040;-66
2023/04/12 03:37:02;;;;;;;6.22;2.00;;;8.70;99.90;;;;;;5083501;28;20040;-67
2023/04/12 03:39:27;;;;;;;7.20;2.38;;;8.70;99.90;;;;;;5058920;28;20088;-66
2023/04/12 03:41:53;;;;;;;7.47;2.28;;;8.70;99.90;;;;;;5066416;28;20072;-66
2023/04/12 03:44:20;;;;;;;6.75;2.22;;;8.70;99.90;;;;;;5070505;28;20037;-66
2023/04/12 03:46:46;;;;;;;6.18;1.95;;;8.70;99.90;;;;;;5093478;28;20036;-66
2023/04/12 03:49:12;;;;;;;6.65;2.55;;;8.70;99.90;;;;;;5078889;28;20035;-66
2023/04/12 03:51:41;;;;;;;6.28;1.90;;;8.70;99.90;;;;;;5077058;28;20037;-67
2023/04/12 03:54:14;;;;;;;7.20;2.10;;;8.70;99.90;;;;;;5068543;28;20046;-67
2023/04/12 03:56:39;;;;;;;5.50;2.20;;;8.70;99.90;;;;;;5091415;28;20028;-66
2023/04/12 03:59:08;;;;;;;5.82;1.80;;;8.70;99.90;;;;;;5086762;28;20031;-66
2023/04/12 04:01:34;;;;;;;5.15;2.15;;;8.70;99.90;;;;;;5072267;28;20183;-66
2023/04/12 04:04:01;;;;;;;7.40;2.10;;;8.70;99.90;;;;;;5066890;28;20040;-66
2023/04/12 04:06:28;;;;;;;5.45;1.92;;;8.70;99.90;;;;;;5074022;28;20033;-66
2023/04/12 04:08:55;;;;;;;6.05;2.13;;;8.70;99.90;;;;;;5065792;28;20139;-66
2023/04/12 04:11:20;;;;;;;6.45;1.80;;;8.70;99.90;;;;;;5069581;28;20167;-66
2023/04/12 04:13:46;;;;;;;4.20;1.90;;;8.80;99.90;;;;;;5074250;28;20143;-66
2023/04/12 04:16:11;;;;;;;8.48;2.28;;;8.80;99.90;;;;;;5082487;28;20130;-67
2023/04/12 04:18:37;;;;;;;6.90;1.90;;;8.70;99.90;;;;;;5065749;28;20044;-66
2023/04/12 04:21:02;;;;;;;5.32;2.17;;;8.70;99.90;;;;;;5090535;28;20043;-66
2023/04/12 04:23:37;;;;;;;6.47;2.30;;;8.70;99.90;;;;;;5079452;28;20032;-66
2023/04/12 04:26:05;;;;;;;6.35;2.72;;;8.70;99.90;;;;;;5076156;28;20028;-66
2023/04/12 04:28:32;;;;;;;6.47;2.33;;;8.60;99.90;;;;;;5068696;28;20037;-66
2023/04/12 04:31:02;;;;;;;9.63;2.40;;;8.60;99.90;;;;;;5063819;28;20071;-66
2023/04/12 04:33:28;;;;;;;6.75;2.78;;;8.60;99.90;;;;;;5080291;28;20039;-66
2023/04/12 04:35:55;;;;;;;8.05;2.58;;;8.60;99.90;;;;;;5076816;28;20036;-65
2023/04/12 04:38:24;;;;;;;6.13;2.20;;;8.50;99.90;;;;;;5083490;28;20032;-65
2023/04/12 04:40:52;;;;;;;6.93;2.15;;;8.50;99.90;;;;;;5084542;28;20444;-65
2023/04/12 04:43:18;;;;;;;4.97;2.00;;;8.60;99.90;;;;;;5053500;28;20064;-65
2023/04/12 04:45:48;;;;;;;6.25;1.95;;;8.50;99.90;;;;;;5071651;28;20115;-64
2023/04/12 04:48:13;;;;;;;4.18;1.83;;;8.50;99.90;;;;;;5067870;28;20033;-64
2023/04/12 04:50:39;;;;;;;6.88;2.30;;;8.50;99.90;;;;;;5062635;28;20112;-64
2023/04/12 04:53:05;;;;;;;6.00;1.88;;;8.50;99.90;;;;;;5079652;28;20097;-64
2023/04/12 04:55:30;;;;;;;7.68;1.73;;;8.50;99.90;;;;;;5082506;28;20392;-64
2023/04/12 04:57:56;;;;;;;5.25;2.28;;;8.50;99.90;;;;;;5074394;28;20032;-64
2023/04/12 05:00:24;;;;;;;7.93;2.40;;;8.50;99.90;;;;;;5086439;28;20112;-64
2023/04/12 05:02:50;;;;;;;4.45;1.75;;;8.50;99.90;;;;;;5074956;28;20041;-64
2023/04/12 05:05:16;;;;;;;7.35;2.10;;;8.40;99.90;;;;;;5083491;28;20109;-64
2023/04/12 05:07:42;;;;;;;4.45;1.65;;;8.40;99.90;;;;;;5072078;28;20036;-64
2023/04/12 05:10:09;;;;;;;2.50;1.52;;;8.40;99.90;;;;;;5078407;28;20068;-64
2023/04/12 05:12:36;;;;;;;6.85;2.35;;;8.40;99.90;;;;;;5086234;28;20051;-64
2023/04/12 05:15:02;;;;;;;7.55;2.00;;;8.40;99.90;;;;;;5082670;28;20047;-64
2023/04/12 05:17:28;;;;;;;6.25;2.00;;;8.40;99.90;;;;;;5072939;28;20052;-64
2023/04/12 05:19:54;;;;;;;4.03;1.80;;;8.40;99.90;;;;;;5077295;28;20051;-65
2023/04/12 05:22:20;;;;;;;4.07;2.42;;;8.40;99.90;;;;;;5079983;28;20120;-65
2023/04/12 05:24:49;;;;;;;3.42;2.45;;;8.40;99.90;;;;;;5065711;28;20037;-66
2023/04/12 05:27:18;;;;;;;7.15;1.60;;;8.30;99.90;;;;;;5056389;28;20036;-66
2023/04/12 05:29:43;;;;;;;6.35;2.05;;;8.30;99.90;;;;;;5071149;28;20407;-66
2023/04/12 05:32:09;;;;;;;2.72;1.77;;;8.30;99.90;;;;;;5062080;28;20062;-66
2023/04/12 05:34:36;;;;;;;6.82;2.20;;;8.30;99.90;;;;;;5071211;28;20029;-66
2023/04/12 05:37:02;;;;;;;3.20;1.70;;;8.30;99.90;;;;;;5075376;28;20044;-66
2023/04/12 05:39:28;;;;;;;4.57;1.98;;;8.30;99.90;;;;;;5091288;28;20090;-66
2023/04/12 05:41:54;;;;;;;3.83;1.92;;;8.30;99.90;;;;;;5080623;28;20438;-66
2023/04/12 05:44:19;;;;;;;5.72;2.22;;;8.30;99.90;;;;;;5075492;28;20052;-67
2023/04/12 05:46:45;;;;;;;4.40;1.73;;;8.20;99.90;;;;;;5073621;28;20043;-66
2023/04/12 05:49:11;;;;;;;4.28;2.00;;;8.20;99.90;;;;;;5080706;28;20039;-66
2023/04/12 05:51:36;;;;;;;6.72;1.90;;;8.20;99.90;;;;;;5069991;28;20036;-66
2023/04/12 05:54:05;;;;;;;4.85;1.63;;;8.20;99.90;;;;;;5053391;28;20113;-66
2023/04/12 05:56:31;;;;;;;4.82;2.40;;;8.20;99.90;;;;;;5068803;28;20129;-66
2023/04/12 05:58:56;;;;;;;7.55;1.98;;;8.20;99.90;;;;;;5046155;28;20052;-66
2023/04/12 06:01:23;;;;;;;6.30;2.00;;;8.10;99.90;;;;;;5066183;28;20379;-66
2023/04/12 06:03:49;;;;;;;4.25;2.08;;;8.20;99.90;;;;;;5075367;28;20041;-66
2023/04/12 06:06:15;;;;;;;4.93;2.10;;;8.20;99.90;;;;;;5075988;28;20040;-67
2023/04/12 06:08:41;;;;;;;5.20;1.70;;;8.20;99.90;;;;;;5067697;28;20032;-66
2023/04/12 06:11:07;;;;;;;6.00;2.00;;;8.20;99.90;;;;;;5067093;28;20052;-66
2023/04/12 06:13:32;;;;;;;2.47;1.95;;;8.20;99.90;;;;;;5068944;28;20091;-66
2023/04/12 06:15:58;;;;;;;5.13;2.08;;;8.20;99.90;;;;;;5068079;28;20079;-66
2023/04/12 06:18:23;;;;;;;3.55;1.95;;;8.20;99.90;;;;;;5076068;28;20243;-66
2023/04/12 06:20:49;;;;;;;5.70;3.42;;;8.20;99.90;;;;;;5078163;28;20046;-67
2023/04/12 06:23:16;;;;;;;6.05;2.10;;;8.10;99.90;;;;;;5073689;28;20029;-66
2023/04/12 06:25:41;;;;;;;6.30;2.28;;;8.10;99.90;;;;;;5068527;28;20544;-66
2023/04/12 06:28:07;;;;;;;6.05;2.10;;;8.10;99.90;;;;;;5067440;28;20028;-66
2023/04/12 06:30:32;;;;;;;5.32;2.00;;;8.10;99.90;;;;;;5069687;28;20044;-66
2023/04/12 06:32:58;;;;;;;5.95;2.05;;;8.20;99.90;;;;;;5079952;28;20509;-66
2023/04/12 06:35:23;;;;;;;8.35;2.30;;;8.20;99.90;;;;;;5090618;28;20429;-66
2023/04/12 06:37:49;;;;;;;5.68;1.80;;;8.10;99.90;;;;;;5074974;28;20055;-66
2023/04/12 06:40:15;;;;;;;4.15;1.65;;;8.10;99.90;;;;;;5074430;28;20040;-66
2023/04/12 06:42:40;;;;;;;5.78;2.05;;;8.10;99.90;;;;;;5083283;28;20036;-66
2023/04/12 06:45:06;;;;;;;8.52;2.25;;;8.10;99.90;;;;;;5067764;28;20036;-66
2023/04/12 06:47:32;;;;;;;5.32;2.30;;;8.10;99.90;;;;;;5081794;28;20421;-66
2023/04/12 06:49:57;;;;;;;5.88;2.25;;;8.10;99.90;;;;;;5083978;28;20107;-66
2023/04/12 06:52:26;;;;;;;7.75;2.55;;;8.10;99.90;;;;;;5071404;28;20037;-66
2023/04/12 06:54:53;;;;;;;6.55;2.33;;;8.10;99.90;;;;;;5084800;28;20055;-66
2023/04/12 06:57:18;;;;;;;5.13;2.60;;;8.10;99.90;;;;;;5044799;28;20036;-66
2023/04/12 06:59:44;;;;;;;4.60;2.53;;;8.10;99.90;;;;;;5070472;28;20045;-66
2023/04/12 07:02:10;;;;;;;6.32;2.40;;;8.10;99.90;;;;;;5064710;28;20072;-67
2023/04/12 07:04:36;;;;;;;6.88;2.38;;;8.10;99.90;;;;;;5085934;28;20035;-67
2023/04/12 07:07:01;;;;;;;8.50;2.60;;;8.20;99.90;;;;;;5081057;28;20626;-67
2023/04/12 07:09:31;;;;;;;3.95;2.13;;;8.10;99.90;;;;;;5076369;28;20028;-67
2023/04/12 07:11:57;;;;;;;5.93;2.55;;;8.20;99.90;;;;;;5064908;28;20505;-66
2023/04/12 07:14:23;;;;;;;6.15;2.22;;;8.20;99.90;;;;;;5080571;28;20111;-66
2023/04/12 07:16:48;;;;;;;5.50;2.45;;;8.20;99.90;;;;;;5070232;28;20118;-66
2023/04/12 07:19:15;;;;;;;5.82;2.55;;;8.20;99.90;;;;;;5070717;28;20056;-66
2023/04/12 07:21:40;;;;;;;8.75;2.90;;;8.20;99.90;;;;;;5080197;28;20438;-67
2023/04/12 07:24:06;;;;;;;6.72;2.53;;;8.20;99.90;;;;;;5066135;28;20139;-67
2023/04/12 07:26:32;;;;;;;4.43;2.75;;;8.20;99.90;;;;;;5076991;28;20427;-66
2023/04/12 07:28:57;;;;;;;4.50;2.38;;;8.20;99.90;;;;;;5069865;28;20430;-68
2023/04/12 07:31:23;;;;;;;5.53;2.60;;;8.20;99.90;;;;;;5074662;28;20379;-66
2023/04/12 07:33:48;;;;;;;5.68;2.83;;;8.20;99.90;;;;;;5078529;28;20067;-66
2023/04/12 07:36:15;;;;;;;5.45;2.42;;;8.20;99.90;;;;;;5069693;28;20106;-67
2023/04/12 07:38:41;;;;;;;5.20;2.30;;;8.20;99.90;;;;;;5062762;28;20029;-67
2023/04/12 07:41:07;;;;;;;4.65;2.25;;;8.20;99.90;;;;;;5086590;22;20052;-63
2023/04/12 07:43:32;;;;;;;5.80;2.08;;;8.20;99.90;;;;;;5087726;28;20040;-63
2023/04/12 07:45:58;;;;;;;6.18;2.60;;;8.20;99.90;;;;;;5082424;28;20032;-63
2023/04/12 07:48:24;;;;;;;5.35;2.90;;;8.20;99.90;;;;;;5084835;28;20028;-63
2023/04/12 07:50:50;;;;;;;7.22;2.42;;;8.20;99.90;;;;;;5083408;28;20115;-62
2023/04/12 07:53:21;;;;;;;3.65;2.45;;;8.20;99.90;;;;;;5066104;28;20402;-63
2023/04/12 07:55:47;;;;;;;5.88;2.70;;;8.20;99.90;;;;;;5066885;28;20082;-63
2023/04/12 07:58:12;;;;;;;5.55;2.60;;;8.20;99.90;;;;;;5070260;28;20024;-63
2023/04/12 08:00:38;;;;;;;7.20;2.83;;;8.30;99.90;;;;;;5068696;28;20448;-63
2023/04/12 08:03:03;;;;;;;3.55;2.85;;;8.20;99.90;;;;;;5080400;28;20135;-63
2023/04/12 08:05:29;;;;;;;4.65;2.70;;;8.20;99.90;;;;;;5067006;28;20111;-63
2023/04/12 08:07:55;;;;;;;5.57;2.60;;;8.30;99.90;;;;;;5076272;28;20043;-62
2023/04/12 08:10:20;;;;;;;7.00;2.95;;;8.30;99.90;;;;;;5060110;28;20036;-63
2023/04/12 08:12:46;;;;;;;4.05;2.78;;;8.30;99.90;;;;;;5079802;28;20043;-63
2023/04/12 08:15:12;;;;;;;4.75;2.90;;;8.30;99.90;;;;;;5074514;28;20587;-63
2023/04/12 08:17:38;;;;;;;3.55;2.90;;;8.30;99.90;;;;;;5075972;28;20478;-63
2023/04/12 08:20:04;;;;;;;4.53;2.90;;;8.30;99.90;;;;;;5078318;28;20032;-64
2023/04/12 08:22:30;;;;;;;4.60;2.90;;;8.30;99.90;;;;;;5070804;28;20082;-63
2023/04/12 08:24:56;;;;;;;4.05;3.20;;;8.30;99.90;;;;;;5094916;28;20032;-64
2023/04/12 08:27:21;;;;;;;6.10;3.20;;;8.30;99.90;;;;;;5078385;28;21443;-64
2023/04/12 08:29:47;;;;;;;5.65;3.10;;;8.40;99.90;;;;;;5068693;28;20091;-63
2023/04/12 08:32:13;;;;;;;6.38;3.17;;;8.40;99.90;;;;;;5072584;28;20036;-63
2023/04/12 08:34:38;;;;;;;5.00;3.50;;;8.40;99.90;;;;;;5080345;28;20086;-63
2023/04/12 08:37:04;;;;;;;5.75;3.30;;;8.50;99.90;;;;;;5069485;28;20112;-63
2023/04/12 08:39:31;;;;;;;5.22;3.45;;;8.50;99.90;;;;;;5071957;28;20407;-63
2023/04/12 08:41:59;;;;;;;4.15;3.47;;;8.60;99.90;;;;;;5076884;28;20047;-63
2023/04/12 08:44:34;;;;;;;5.18;4.18;;;8.60;99.90;;;;;;5068282;28;20486;-64
2023/04/12 08:47:01;;;;;;;5.20;3.72;;;8.70;99.90;;;;;;5067217;28;20032;-64
2023/04/12 08:49:27;;;;;;;7.03;4.13;;;8.70;99.90;;;;;;5066590;28;20048;-64
2023/04/12 08:51:53;;;;;;;6.10;4.50;;;8.70;99.90;;;;;;5070627;28;20398;-64
2023/04/12 08:54:19;;;;;;;4.78;4.28;;;8.80;99.90;;;;;;5066666;28;20043;-64
2023/04/12 08:56:46;;;;;;;5.10;4.57;;;8.80;99.90;;;;;;5080248;28;20040;-64
2023/04/12 08:59:13;;;;;;;5.32;4.47;;;8.80;99.90;;;;;;5079672;28;20510;-64
2023/04/12 09:01:40;;;;;;;7.05;5.07;;;8.80;99.90;;;;;;5057946;28;20041;-64
2023/04/12 09:04:06;;;;;;;6.07;4.82;;;8.80;99.90;;;;;;5071075;28;20199;-64
2023/04/12 09:06:32;;;;;;;7.32;5.35;;;8.80;99.90;;;;;;5081894;28;20054;-64
2023/04/12 09:09:00;;;;;;;6.28;4.95;;;8.70;99.90;;;;;;5081779;28;20302;-64
2023/04/12 09:11:27;;;;;;;7.07;5.20;;;8.70;99.90;;;;;;5078864;28;20055;-64
2023/04/12 09:13:56;;;;;;;6.13;5.05;;;8.70;99.90;;;;;;5077682;28;20062;-65
2023/04/12 09:16:41;;;;;;;6.15;5.13;;;8.70;99.90;;;;;;5084034;28;20432;-65
2023/04/12 09:19:07;;;;;;;6.68;5.47;;;8.70;99.90;;;;;;5056108;28;20043;-64
2023/04/12 09:21:34;;;;;;;6.80;5.43;;;8.80;99.90;;;;;;5084843;28;20040;-64
2023/04/12 09:24:12;;;;;;;6.30;5.60;;;8.80;99.90;;;;;;5076867;28;20024;-64
2023/04/12 09:26:38;;;;;;;6.53;5.40;;;8.80;99.90;;;;;;5048696;28;20036;-63
2023/04/12 09:29:04;;;;;;;8.13;5.45;;;8.80;99.90;;;;;;5074298;28;20036;-64
2023/04/12 09:31:30;;;;;;;8.23;5.97;;;8.80;99.90;;;;;;5079811;28;20038;-64
2023/04/12 09:34:08;;;;;;;7.57;6.15;;;8.80;99.90;;;;;;5079553;28;20115;-64
2023/04/12 09:36:39;;;;;;;7.00;5.68;;;8.80;99.90;;;;;;5043562;28;20059;-64
2023/04/12 09:39:06;;;;;;;8.07;6.60;;;8.80;99.90;;;;;;5070745;28;20122;-63
2023/04/12 09:41:32;;;;;;;7.63;6.82;;;8.90;99.90;;;;;;5082281;28;20040;-64
2023/04/12 09:43:59;;;;;;;7.25;5.63;;;8.90;99.90;;;;;;5053864;28;20048;-63
2023/04/12 09:46:24;;;;;;;7.50;6.00;;;9.00;99.90;;;;;;5076663;28;20024;-63
2023/04/12 09:48:52;;;;;;;8.10;6.75;;;9.10;99.90;;;;;;5081015;28;20050;-63
2023/04/12 09:51:32;;;;;;;8.93;7.63;;;9.20;99.90;;;;;;5076064;28;20032;-63
2023/04/12 09:54:03;;;;;;;7.80;6.63;;;9.30;99.90;;;;;;5070743;28;20036;-63
2023/04/12 09:56:30;;;;;;;;;;;9.40;99.90;;;;;;5077997;28;20484;-63
2023/04/12 09:59:02;;;;;;;8.55;7.13;;;9.50;99.90;;;;;;5067081;28;19916;-63
2023/04/12 10:01:32;;;;;;;8.07;6.68;;;9.60;99.90;;;;;;5072386;28;20094;-63
2023/04/12 10:03:58;;;;;;;6.75;6.03;;;9.60;99.90;;;;;;5072259;28;20036;-62
2023/04/12 10:06:25;;;;;;;8.25;6.18;;;9.60;99.90;;;;;;5087038;28;20036;-63
2023/04/12 10:08:51;;;;;;;8.05;6.57;;;9.70;99.90;;;;;;5073271;28;20086;-62
2023/04/12 10:11:18;;;;;;;8.68;7.18;;;9.70;99.90;;;;;;5071311;28;20524;-63
2023/04/12 10:13:44;;;;;;;10.30;6.72;;;9.70;99.90;;;;;;5070758;28;20045;-63
2023/04/12 10:16:12;;;;;;;9.35;6.38;;;9.80;99.90;;;;;;5072241;28;20032;-63
2023/04/12 10:18:38;;;;;;;7.38;6.13;;;9.90;99.90;;;;;;5070552;28;20044;-63
2023/04/12 10:21:04;;;;;;;9.40;5.93;;;10.00;99.90;;;;;;5087586;28;20033;-62
2023/04/12 10:23:33;;;;;;;7.75;6.47;;;10.20;99.90;;;;;;5070893;28;20032;-63
2023/04/12 10:26:03;;;;;;;8.35;6.15;;;10.20;99.90;;;;;;5070641;28;20636;-62
2023/04/12 10:28:29;;;;;;;8.35;5.82;;;10.30;99.90;;;;;;5070023;28;20071;-63
2023/04/12 10:30:58;;;;;;;8.27;5.25;;;10.30;99.90;;;;;;5070765;28;20040;-63
2023/04/12 10:33:29;;;;;;;9.63;6.07;;;10.30;99.90;;;;;;5088358;28;20089;-63
2023/04/12 10:36:01;;;;;;;9.20;5.75;;;10.30;99.90;;;;;;5092452;28;20111;-62
2023/04/12 10:38:31;;;;;;;8.55;5.63;;;10.40;99.90;;;;;;5075097;28;20055;-63
2023/04/12 10:41:09;;;;;;;12.90;5.28;;;10.40;99.90;;;;;;5077967;28;20040;-63
2023/04/12 10:43:35;;;;;;;9.15;4.60;;;10.60;99.90;;;;;;5070268;28;20040;-62
2023/04/12 10:46:05;;;;;;;9.35;5.03;;;10.70;99.90;;;;;;5066935;28;20030;-63
2023/04/12 10:48:35;;;;;;;9.90;4.55;;;10.70;99.90;;;;;;5079732;28;20032;-62
2023/04/12 10:51:23;;;;;;;7.40;3.42;;;10.80;99.90;;;;;;5066336;28;20173;-62
2023/04/12 10:53:50;;;;;;;6.70;3.78;;;10.90;99.90;;;;;;5067832;28;20046;-63
2023/04/12 10:56:31;;;;;;;8.98;3.97;;;10.90;99.90;;;;;;5065360;28;20075;-62
2023/04/12 10:58:58;;;;;;;7.55;4.13;;;10.90;99.90;;;;;;5048537;28;20043;-62
2023/04/12 11:01:25;;;;;;;12.85;4.05;;;11.00;99.90;;;;;;5075305;28;20054;-62
2023/04/12 11:04:13;;;;;;;11.52;4.00;;;11.20;99.90;;;;;;5078322;28;20036;-62
2023/04/12 11:06:50;;;;;;;10.95;3.42;;;11.50;99.90;;;;;;5071366;28;20051;-62
2023/04/12 11:09:29;;;;;;;10.57;4.07;;;11.70;99.90;;;;;;5069727;28;20036;-62
2023/04/12 11:11:57;;;;;;;9.98;3.55;;;11.80;99.90;;;;;;5084426;28;20094;-62
2023/04/12 11:14:50;;;;;;;8.02;3.28;;;11.80;99.90;;;;;;5075828;28;20057;-62
2023/04/12 11:17:15;;;;;;;9.32;3.70;;;12.00;99.90;;;;;;5055506;28;20574;-62
2023/04/12 11:19:50;;;;;;;11.95;3.67;;;12.00;99.90;;;;;;5057256;28;20045;-63
2023/04/12 11:22:17;;;;;;;10.57;3.38;;;12.20;99.90;;;;;;5059567;28;20083;-62
2023/04/12 11:24:45;;;;;;;9.48;3.33;;;12.20;99.90;;;;;;5056165;28;20033;-62
2023/04/12 11:27:11;;;;;;;8.48;3.50;;;12.20;99.90;;;;;;5058104;28;20032;-62
2023/04/12 11:29:37;;;;;;;10.20;3.20;;;12.40;99.90;;;;;;5058407;28;20036;-62
2023/04/12 11:32:04;;;;;;;10.52;3.00;;;12.60;99.90;;;;;;5061793;28;20078;-62
2023/04/12 11:34:34;;;;;;;10.43;2.97;;;12.80;99.90;;;;;;5044916;28;20468;-62
2023/04/12 11:37:03;;;;;;;10.00;2.78;;;13.00;99.90;;;;;;5066192;28;20036;-63
2023/04/12 11:39:28;;;;;;;9.70;3.13;;;12.80;99.90;;;;;;5061401;28;20033;-62
2023/04/12 11:41:55;;;;;;;12.07;3.33;;;12.70;99.90;;;;;;5063472;28;20398;-62
2023/04/12 11:44:21;;;;;;;8.05;3.00;;;12.70;99.90;;;;;;5060544;28;20048;-62
2023/04/12 11:46:48;;;;;;;9.48;2.95;;;12.70;99.90;;;;;;5067387;28;20493;-62
2023/04/12 11:49:17;;;;;;;8.18;2.97;;;12.80;99.90;;;;;;5063957;28;20032;-62
2023/04/12 11:51:43;;;;;;;10.48;2.83;;;12.90;99.90;;;;;;5065269;28;20044;-62
2023/04/12 11:54:10;;;;;;;9.07;2.97;;;13.00;99.90;;;;;;5064977;28;20119;-62
2023/04/12 11:56:36;;;;;;;9.38;3.35;;;13.10;99.90;;;;;;5048255;28;20041;-62
2023/04/12 11:59:02;;;;;;;8.73;2.83;;;13.20;99.90;;;;;;5066803;28;20109;-62
2023/04/12 12:01:28;;;;;;;12.43;3.30;;;13.30;99.90;;;;;;5067440;28;20069;-62
2023/04/12 12:03:54;;;;;;;6.70;2.60;;;13.40;99.90;;;;;;5065289;28;20501;-62
2023/04/12 12:06:21;;;;;;;8.02;2.90;;;13.50;99.90;;;;;;5067276;28;20075;-62
2023/04/12 12:08:50;;;;;;;9.45;3.13;;;13.50;99.90;;;;;;5073570;28;20410;-62
2023/04/12 12:11:16;;;;;;;12.25;2.72;;;13.50;99.90;;;;;;5081810;28;20119;-62
2023/04/12 12:13:48;;;;;;;10.30;2.75;;;13.60;99.90;;;;;;5067696;28;20044;-62
2023/04/12 12:16:14;;;;;;;7.70;2.58;;;13.70;99.90;;;;;;5064939;28;20064;-62
2023/04/12 12:18:44;;;;;;;8.20;2.60;;;13.80;99.90;;;;;;5064369;28;20040;-62
2023/04/12 12:21:12;;;;;;;7.25;1.95;;;13.80;99.90;;;;;;5056152;28;20040;-62
2023/04/12 12:23:40;;;;;;;10.18;2.95;;;13.90;99.90;;;;;;5082887;28;20477;-62
2023/04/12 12:26:06;;;;;;;7.50;2.60;;;13.90;99.90;;;;;;5077810;28;20040;-62
2023/04/12 12:28:39;;;;;;;9.48;2.40;;;14.00;99.90;;;;;;5083538;28;20024;-62
2023/04/12 12:31:05;;;;;;;9.73;2.83;;;14.10;99.90;;;;;;5054719;28;20044;-62
2023/04/12 12:33:38;;;;;;;10.52;2.25;;;14.20;99.90;;;;;;5072370;28;20266;-62
2023/04/12 12:36:05;;;;;;;9.93;2.38;;;14.20;99.90;;;;;;5069433;28;20062;-62
2023/04/12 12:38:38;;;;;;;8.93;2.28;;;14.00;99.90;;;;;;5077471;28;20036;-62
2023/04/12 12:41:22;;;;;;;9.45;2.53;;;13.80;99.90;;;;;;5047138;28;20048;-62
2023/04/12 12:43:49;;;;;;;8.60;2.25;;;13.60;99.90;;;;;;5066879;28;20529;-62
2023/04/12 12:46:16;;;;;;;8.00;2.50;;;13.50;99.90;;;;;;5084801;28;20405;-62
2023/04/12 12:48:43;;;;;;;9.57;2.30;;;13.30;99.90;;;;;;5075084;28;20441;-62
2023/04/12 12:51:10;;;;;;;7.90;2.75;;;13.20;99.90;;;;;;5092972;28;20043;-62
2023/04/12 12:53:36;;;;;;;8.25;2.25;;;13.10;99.90;;;;;;5083108;28;20044;-63
2023/04/12 12:56:02;;;;;;;9.25;2.33;;;12.90;99.90;;;;;;5067844;28;20036;-62
2023/04/12 12:58:28;;;;;;;10.82;2.67;;;12.90;99.90;;;;;;5070616;28;20407;-62